Time;durP1;ratioP1;P1;durP2;ratioP2;P2;SDS_P1;SDS_P2;PMS_P1;PMS_P2;Temp;Humidity;BMP_temperature;BMP_pressure;BME280_temperature;BME280_humidity;BME280_pressure;Samples;Min_cycle;Max_cycle;Signal;HPM_P1;HPM_P2
2022/08/28 00:01:07;;;;;;;6.13;1.42;;;20.20;99.90;;;;;;5053280;28;20642;-86
2022/08/28 00:03:34;;;;;;;5.40;1.50;;;20.00;99.90;;;;;;5052218;28;20167;-86
2022/08/28 00:06:00;;;;;;;11.70;1.77;;;20.10;99.90;;;;;;5053166;28;20159;-86
2022/08/28 00:08:26;;;;;;;7.50;1.35;;;20.10;99.90;;;;;;5052179;28;20187;-85
2022/08/28 00:10:52;;;;;;;4.60;1.42;;;20.20;99.90;;;;;;5052390;28;20186;-85
2022/08/28 00:13:21;;;;;;;8.15;2.38;;;20.00;99.90;;;;;;5052287;28;20187;-86
2022/08/28 00:15:49;;;;;;;14.35;1.63;;;19.80;99.90;;;;;;5052425;28;20166;-86
2022/08/28 00:18:16;;;;;;;2.97;1.48;;;19.80;99.90;;;;;;5051900;28;20207;-86
2022/08/28 00:20:43;;;;;;;7.57;1.75;;;19.80;99.90;;;;;;5052347;28;20514;-86
2022/08/28 00:23:09;;;;;;;5.00;2.05;;;19.80;99.90;;;;;;5053102;28;20191;-86
2022/08/28 00:25:35;;;;;;;10.20;1.92;;;19.90;99.90;;;;;;5051965;28;20270;-86
2022/08/28 00:28:05;;;;;;;4.40;1.38;;;19.70;99.90;;;;;;5051820;28;20677;-85
2022/08/28 00:30:41;;;;;;;4.40;1.48;;;19.50;99.90;;;;;;5053072;28;20221;-86
2022/08/28 00:33:14;;;;;;;5.00;1.63;;;19.50;99.90;;;;;;5051694;28;20236;-86
2022/08/28 00:35:41;;;;;;;12.18;2.22;;;19.60;99.90;;;;;;5051898;28;20183;-86
2022/08/28 00:38:09;;;;;;;2.65;1.75;;;19.70;99.90;;;;;;5052893;28;20214;-85
2022/08/28 00:40:35;;;;;;;6.55;1.80;;;19.80;99.90;;;;;;5053054;28;20250;-86
2022/08/28 00:43:03;;;;;;;6.13;2.25;;;19.80;99.90;;;;;;5051711;28;20199;-85
2022/08/28 00:45:31;;;;;;;10.75;1.83;;;19.70;99.90;;;;;;5051926;28;20250;-86
2022/08/28 00:47:57;;;;;;;5.78;1.50;;;19.60;99.90;;;;;;5051853;28;20171;-86
2022/08/28 00:53:18;;;;;;;5.15;1.50;;;19.60;99.90;;;;;;5056805;28;20214;-86
2022/08/28 00:55:44;;;;;;;3.70;1.60;;;19.60;99.90;;;;;;5055794;28;20164;-86
2022/08/28 00:58:10;;;;;;;12.00;1.58;;;19.40;99.90;;;;;;5056833;28;20199;-86
2022/08/28 01:00:38;;;;;;;7.40;1.95;;;19.40;99.90;;;;;;5055234;28;20662;-84
2022/08/28 01:03:04;;;;;;;5.57;1.75;;;19.30;99.90;;;;;;5055480;28;20195;-86
2022/08/28 01:05:32;;;;;;;6.03;1.83;;;19.20;99.90;;;;;;5055233;28;20175;-86
2022/08/28 01:07:58;;;;;;;4.78;1.23;;;19.40;99.90;;;;;;5055544;28;20171;-86
2022/08/28 01:10:26;;;;;;;3.78;1.48;;;19.30;99.90;;;;;;5056844;28;20258;-87
2022/08/28 01:12:55;;;;;;;2.67;1.27;;;19.30;99.90;;;;;;5056384;28;20175;-86
2022/08/28 01:15:25;;;;;;;4.85;1.38;;;19.40;99.90;;;;;;5056356;28;20186;-85
2022/08/28 01:18:00;;;;;;;4.55;1.70;;;19.50;99.90;;;;;;5055187;28;20553;-85
2022/08/28 01:20:32;;;;;;;6.38;2.08;;;19.50;99.90;;;;;;5055321;28;20155;-86
2022/08/28 01:23:06;;;;;;;4.25;1.80;;;19.30;99.90;;;;;;5055211;28;20282;-86
2022/08/28 01:25:35;;;;;;;8.20;1.58;;;19.30;99.90;;;;;;5055220;28;20162;-86
2022/08/28 01:28:02;;;;;;;7.05;1.55;;;19.10;99.90;;;;;;5055217;28;20202;-85
2022/08/28 01:30:30;;;;;;;5.18;1.67;;;19.10;99.90;;;;;;5054518;28;20172;-86
2022/08/28 01:32:57;;;;;;;2.38;1.17;;;19.10;99.90;;;;;;5055795;28;20214;-86
2022/08/28 01:35:27;;;;;;;2.03;1.27;;;19.20;99.90;;;;;;5054683;28;20175;-86
2022/08/28 01:37:55;;;;;;;4.32;1.75;;;19.20;99.90;;;;;;5054580;28;20202;-85
2022/08/28 01:40:29;;;;;;;9.23;1.58;;;19.30;99.90;;;;;;5054685;28;20591;-85
2022/08/28 01:42:54;;;;;;;3.67;1.83;;;19.30;99.90;;;;;;5054539;28;20191;-85
2022/08/28 01:45:21;;;;;;;2.25;1.50;;;19.30;99.90;;;;;;5077660;28;20207;-85
2022/08/28 01:47:47;;;;;;;6.45;1.88;;;19.00;99.90;;;;;;5079073;28;20159;-85
2022/08/28 01:50:18;;;;;;;1.60;1.45;;;19.10;99.90;;;;;;5079552;28;20163;-86
2022/08/28 01:52:43;;;;;;;9.75;1.48;;;19.10;99.90;;;;;;5067074;28;20244;-84
2022/08/28 01:55:10;;;;;;;5.13;1.70;;;19.20;99.90;;;;;;5054251;28;20163;-84
2022/08/28 01:57:43;;;;;;;7.03;1.77;;;19.30;99.90;;;;;;5053949;28;20309;-83
2022/08/28 02:00:10;;;;;;;3.45;1.23;;;19.30;99.90;;;;;;5053917;28;20221;-84
2022/08/28 02:02:35;;;;;;;8.20;1.35;;;19.30;99.90;;;;;;5054017;28;20626;-84
2022/08/28 02:05:01;;;;;;;8.50;2.20;;;19.20;99.90;;;;;;5055165;28;20198;-85
2022/08/28 02:07:26;;;;;;;2.78;1.42;;;19.10;99.90;;;;;;5053899;28;20175;-84
2022/08/28 02:09:52;;;;;;;4.70;1.75;;;19.00;99.90;;;;;;5055114;28;20171;-83
2022/08/28 02:12:19;;;;;;;3.58;1.77;;;18.90;99.90;;;;;;5053613;28;20555;-85
2022/08/28 02:14:45;;;;;;;6.40;1.88;;;18.90;99.90;;;;;;5053493;28;20159;-83
2022/08/28 02:17:10;;;;;;;11.40;2.22;;;18.90;99.90;;;;;;5053512;28;20301;-84
2022/08/28 02:19:36;;;;;;;3.97;1.35;;;19.00;99.90;;;;;;5053255;28;20186;-84
2022/08/28 02:22:06;;;;;;;9.65;2.22;;;19.10;99.90;;;;;;5053205;28;20696;-85
2022/08/28 02:24:33;;;;;;;5.18;1.83;;;19.10;99.90;;;;;;5053082;28;20182;-84
2022/08/28 02:27:01;;;;;;;4.93;2.05;;;19.20;99.90;;;;;;5053292;28;20159;-84
2022/08/28 02:29:27;;;;;;;7.43;2.05;;;19.20;99.90;;;;;;5053265;28;20535;-84
2022/08/28 02:31:52;;;;;;;4.75;1.98;;;19.30;99.90;;;;;;5052995;28;20590;-84
2022/08/28 02:34:18;;;;;;;3.60;1.88;;;19.10;99.90;;;;;;5052962;28;20171;-84
2022/08/28 02:36:44;;;;;;;10.90;2.28;;;19.10;99.90;;;;;;5053904;28;20705;-84
2022/08/28 02:39:10;;;;;;;4.65;1.90;;;19.10;99.90;;;;;;5053175;28;20190;-84
2022/08/28 02:41:36;;;;;;;2.97;1.70;;;19.00;99.90;;;;;;5052782;28;20190;-84
2022/08/28 02:44:02;;;;;;;9.75;2.65;;;18.80;99.90;;;;;;5053081;28;20206;-84
2022/08/28 02:46:27;;;;;;;9.15;2.33;;;18.80;99.90;;;;;;5052948;28;20198;-84
2022/08/28 02:48:54;;;;;;;7.82;1.92;;;18.70;99.90;;;;;;5054252;28;20170;-84
2022/08/28 02:51:19;;;;;;;10.13;2.42;;;18.70;99.90;;;;;;5052765;28;20175;-84
2022/08/28 02:53:45;;;;;;;8.10;2.40;;;18.70;99.90;;;;;;5052638;28;20194;-84
2022/08/28 02:56:11;;;;;;;4.95;2.47;;;18.80;99.90;;;;;;5054128;28;20650;-84
2022/08/28 02:58:38;;;;;;;11.82;2.45;;;18.70;99.90;;;;;;5052830;28;20211;-84
2022/08/28 03:01:06;;;;;;;4.60;1.98;;;18.50;99.90;;;;;;5052440;28;20171;-85
2022/08/28 03:03:32;;;;;;;7.22;2.72;;;18.50;99.90;;;;;;5052830;28;20171;-83
2022/08/28 03:05:59;;;;;;;11.75;2.65;;;18.60;99.90;;;;;;5052453;28;20170;-84
2022/08/28 03:08:25;;;;;;;9.73;2.72;;;18.50;99.90;;;;;;5052430;28;20167;-85
2022/08/28 03:10:51;;;;;;;11.43;2.60;;;18.40;99.90;;;;;;5052333;28;20174;-84
2022/08/28 03:13:17;;;;;;;7.80;2.63;;;18.30;99.90;;;;;;5051519;28;20206;-83
2022/08/28 03:15:44;;;;;;;10.18;2.65;;;18.20;99.90;;;;;;5052793;28;20213;-84
2022/08/28 03:18:11;;;;;;;15.25;3.15;;;18.30;99.90;;;;;;5052201;28;20203;-84
2022/08/28 03:20:37;;;;;;;3.88;2.70;;;18.30;99.90;;;;;;5052476;28;20612;-83
2022/08/28 03:25:47;;;;;;;5.05;3.00;;;18.40;99.90;;;;;;5053827;28;20183;-85
2022/08/28 03:28:12;;;;;;;5.43;2.70;;;18.40;99.90;;;;;;5052353;28;20171;-85
2022/08/28 03:30:38;;;;;;;11.27;2.90;;;18.20;99.90;;;;;;5053561;28;20173;-84
2022/08/28 03:33:04;;;;;;;12.38;3.13;;;18.30;99.90;;;;;;5052146;28;20195;-83
2022/08/28 03:35:29;;;;;;;10.40;3.08;;;18.40;99.90;;;;;;5052162;28;20175;-85
2022/08/28 03:37:55;;;;;;;20.02;3.70;;;18.30;99.90;;;;;;5053011;28;20261;-84
2022/08/28 03:40:21;;;;;;;6.10;3.00;;;18.40;99.90;;;;;;5052116;28;20174;-85
2022/08/28 03:42:47;;;;;;;7.50;3.42;;;18.40;99.90;;;;;;5052102;28;20682;-84
2022/08/28 03:45:13;;;;;;;5.20;2.58;;;18.40;99.90;;;;;;5051828;28;20254;-85
2022/08/28 03:47:40;;;;;;;6.43;2.63;;;18.30;99.90;;;;;;5051845;28;20691;-84
2022/08/28 03:50:10;;;;;;;10.45;2.75;;;18.20;99.90;;;;;;5051622;28;20179;-84
2022/08/28 03:52:36;;;;;;;7.55;3.42;;;18.40;99.90;;;;;;5051948;28;20570;-84
2022/08/28 03:55:02;;;;;;;4.55;3.15;;;18.30;99.90;;;;;;5051761;28;20225;-85
2022/08/28 03:57:28;;;;;;;10.18;2.95;;;18.10;99.90;;;;;;5053053;28;20206;-84
2022/08/28 03:59:54;;;;;;;7.35;2.72;;;17.80;99.90;;;;;;5051754;28;20175;-84
2022/08/28 04:02:20;;;;;;;15.88;2.80;;;17.90;99.90;;;;;;5051574;28;20196;-84
2022/08/28 04:04:48;;;;;;;11.98;3.08;;;18.10;99.90;;;;;;5051734;28;20242;-85
2022/08/28 04:07:14;;;;;;;4.63;2.47;;;18.00;99.90;;;;;;5052843;28;20245;-84
2022/08/28 04:09:39;;;;;;;8.30;3.65;;;18.00;99.90;;;;;;5051627;28;20214;-84
2022/08/28 04:12:06;;;;;;;6.78;2.83;;;17.90;99.90;;;;;;5051628;28;20191;-84
2022/08/28 04:14:31;;;;;;;12.00;2.70;;;18.10;99.90;;;;;;5051543;28;20175;-84
2022/08/28 04:16:57;;;;;;;8.57;2.88;;;18.10;99.90;;;;;;5051766;28;20199;-84
2022/08/28 04:19:22;;;;;;;4.18;3.00;;;18.20;99.90;;;;;;5051738;28;20175;-85
2022/08/28 04:21:48;;;;;;;5.38;2.80;;;18.20;99.90;;;;;;5051152;28;20187;-84
2022/08/28 04:24:14;;;;;;;14.98;3.10;;;18.20;99.90;;;;;;5052715;28;20647;-84
2022/08/28 04:26:39;;;;;;;8.73;3.00;;;18.10;99.90;;;;;;5056761;28;20535;-84
2022/08/28 04:29:05;;;;;;;4.70;2.80;;;17.90;99.90;;;;;;5056584;28;20170;-84
2022/08/28 04:31:31;;;;;;;8.18;3.35;;;18.00;99.90;;;;;;5055123;28;20214;-85
2022/08/28 04:33:58;;;;;;;7.10;2.58;;;18.00;99.90;;;;;;5055559;28;20172;-85
2022/08/28 04:36:24;;;;;;;8.15;3.03;;;18.10;99.90;;;;;;5055751;28;20241;-85
2022/08/28 04:38:49;;;;;;;13.60;2.58;;;18.10;99.90;;;;;;5055458;28;20631;-83
2022/08/28 04:41:16;;;;;;;6.55;2.45;;;18.00;99.90;;;;;;5055405;28;20163;-84
2022/08/28 04:43:43;;;;;;;7.07;3.10;;;18.00;99.90;;;;;;5055659;28;20200;-84
2022/08/28 04:46:12;;;;;;;8.27;3.33;;;18.10;99.90;;;;;;5054952;28;20294;-84
2022/08/28 04:48:38;;;;;;;6.28;2.65;;;18.30;99.90;;;;;;5055329;28;20191;-84
2022/08/28 04:51:07;;;;;;;13.00;2.53;;;18.10;99.90;;;;;;5056719;28;20178;-84
2022/08/28 04:53:33;;;;;;;10.27;2.97;;;18.00;99.90;;;;;;5056091;28;20661;-85
2022/08/28 04:55:59;;;;;;;12.25;2.28;;;18.00;99.90;;;;;;5055105;28;20175;-84
2022/08/28 04:58:25;;;;;;;5.03;2.08;;;17.80;99.90;;;;;;5054656;28;20230;-84
2022/08/28 05:00:53;;;;;;;7.55;2.42;;;17.70;99.90;;;;;;5056228;28;20178;-84
2022/08/28 05:03:18;;;;;;;5.32;2.47;;;17.80;99.90;;;;;;5054495;28;20191;-85
2022/08/28 05:05:50;;;;;;;4.47;2.38;;;17.80;99.90;;;;;;5056363;28;20533;-86
2022/08/28 05:08:18;;;;;;;9.18;2.47;;;17.70;99.90;;;;;;5055834;28;20171;-86
2022/08/28 05:10:45;;;;;;;12.07;2.63;;;17.70;99.90;;;;;;5055798;28;20189;-86
2022/08/28 05:13:14;;;;;;;9.52;2.88;;;17.80;99.90;;;;;;5055448;28;20201;-86
2022/08/28 05:15:41;;;;;;;6.95;2.45;;;17.80;99.90;;;;;;5055377;28;20163;-86
2022/08/28 05:18:07;;;;;;;23.48;3.03;;;17.90;99.90;;;;;;5055204;28;20221;-86
2022/08/28 05:20:38;;;;;;;10.65;2.13;;;17.80;99.90;;;;;;5056734;28;20189;-86
2022/08/28 05:23:05;;;;;;;8.55;2.47;;;17.90;99.90;;;;;;5055123;28;20194;-85
2022/08/28 05:25:35;;;;;;;15.13;2.80;;;17.60;99.90;;;;;;5055328;28;20163;-86
2022/08/28 05:28:01;;;;;;;16.42;2.33;;;17.60;99.90;;;;;;5055589;28;20171;-86
2022/08/28 05:30:26;;;;;;;8.65;1.92;;;17.60;99.90;;;;;;5056207;28;20167;-87
2022/08/28 05:32:52;;;;;;;13.10;2.13;;;17.70;99.90;;;;;;5055005;28;20187;-84
2022/08/28 05:35:18;;;;;;;10.02;2.20;;;17.60;99.90;;;;;;5054226;28;20179;-85
2022/08/28 05:37:44;;;;;;;9.88;2.15;;;17.60;99.90;;;;;;5054532;28;20215;-85
2022/08/28 05:40:10;;;;;;;11.23;2.90;;;17.70;99.90;;;;;;5054785;28;20159;-85
2022/08/28 05:42:37;;;;;;;5.72;2.15;;;17.70;99.90;;;;;;5056222;28;20187;-86
2022/08/28 05:45:03;;;;;;;9.13;2.35;;;17.70;99.90;;;;;;5054866;28;20193;-86
2022/08/28 05:47:31;;;;;;;9.02;2.30;;;17.70;99.90;;;;;;5055084;28;20183;-85
2022/08/28 05:49:57;;;;;;;4.75;2.88;;;17.80;99.90;;;;;;5055226;28;20162;-86
2022/08/28 05:52:23;;;;;;;14.27;2.72;;;18.00;99.90;;;;;;5055753;28;20210;-86
2022/08/28 05:54:50;;;;;;;2.85;1.70;;;17.80;99.90;;;;;;5054934;28;20167;-85
2022/08/28 05:57:16;;;;;;;8.88;2.22;;;18.00;99.90;;;;;;5054657;28;20559;-84
2022/08/28 05:59:41;;;;;;;17.17;2.28;;;18.10;99.90;;;;;;5054676;28;20182;-86
2022/08/28 06:02:07;;;;;;;7.97;2.10;;;18.10;99.90;;;;;;5056042;28;20258;-85
2022/08/28 06:04:35;;;;;;;9.95;2.22;;;18.10;99.90;;;;;;5055170;28;20179;-86
2022/08/28 06:07:00;;;;;;;8.68;1.98;;;17.90;99.90;;;;;;5054466;28;20267;-85
2022/08/28 06:09:27;;;;;;;7.50;2.10;;;17.80;99.90;;;;;;5054877;28;20253;-85
2022/08/28 06:11:54;;;;;;;4.20;1.60;;;17.80;99.90;;;;;;5055492;28;20209;-86
2022/08/28 06:14:20;;;;;;;6.47;2.00;;;17.60;99.90;;;;;;5055727;28;20212;-88
2022/08/28 06:16:51;;;;;;;6.13;1.98;;;17.80;99.90;;;;;;5055392;28;20242;-86
2022/08/28 06:19:19;;;;;;;9.32;2.58;;;18.10;99.90;;;;;;5055916;28;20164;-90
2022/08/28 06:21:50;;;;;;;6.18;2.15;;;18.00;99.90;;;;;;5056102;28;20187;-89
2022/08/28 06:24:16;;;;;;;3.63;1.65;;;18.00;99.90;;;;;;5055095;28;20167;-92
2022/08/28 06:26:43;;;;;;;5.93;2.20;;;17.90;99.90;;;;;;5054861;28;20182;-91
2022/08/28 06:29:12;;;;;;;10.10;1.55;;;17.90;99.90;;;;;;5055935;28;20163;-91
2022/08/28 06:31:38;;;;;;;13.38;1.92;;;17.90;99.90;;;;;;5054806;28;20222;-90
2022/08/28 06:34:05;;;;;;;13.13;2.30;;;17.80;99.90;;;;;;5055282;28;20836;-88
2022/08/28 06:36:33;;;;;;;11.18;1.90;;;17.80;99.90;;;;;;5056061;28;20562;-90
2022/08/28 06:39:00;;;;;;;6.75;2.33;;;17.90;99.90;;;;;;5054842;28;20167;-85
2022/08/28 06:41:27;;;;;;;48.78;4.13;;;18.00;99.90;;;;;;5054781;28;20526;-91
2022/08/28 06:43:55;;;;;;;7.45;2.13;;;18.00;99.90;;;;;;5056007;28;20167;-91
2022/08/28 06:46:21;;;;;;;6.07;2.13;;;17.80;99.90;;;;;;5054803;28;20167;-87
2022/08/28 06:48:47;;;;;;;25.27;2.55;;;17.50;99.90;;;;;;5055367;28;20750;-90
2022/08/28 06:51:13;;;;;;;5.60;1.75;;;17.50;99.90;;;;;;5055915;28;20191;-91
2022/08/28 06:53:41;;;;;;;3.53;1.85;;;17.50;99.90;;;;;;5055849;28;20750;-90
2022/08/28 06:56:12;;;;;;;3.00;1.40;;;17.80;99.90;;;;;;5055955;28;20628;-90
2022/08/28 06:58:42;;;;;;;8.65;1.88;;;17.90;99.90;;;;;;5055580;28;20289;-89
2022/08/28 07:01:25;;;;;;;10.30;1.83;;;17.90;99.90;;;;;;5055574;28;20175;-87
2022/08/28 07:03:53;;;;;;;8.75;1.48;;;17.90;99.90;;;;;;5055220;28;20161;-85
2022/08/28 07:06:21;;;;;;;7.43;1.75;;;17.70;99.90;;;;;;5055519;28;20171;-85
2022/08/28 07:08:47;;;;;;;7.00;1.65;;;17.70;99.90;;;;;;5053605;28;20164;-85
2022/08/28 07:11:20;;;;;;;5.18;1.50;;;17.70;99.90;;;;;;5054225;28;20217;-88
2022/08/28 07:13:47;;;;;;;10.93;2.25;;;17.80;99.90;;;;;;5055247;28;20167;-88
2022/08/28 07:16:16;;;;;;;9.73;2.30;;;17.80;99.90;;;;;;5053959;28;20168;-88
2022/08/28 07:18:43;;;;;;;3.75;1.60;;;17.80;99.90;;;;;;5054745;28;20570;-85
2022/08/28 07:21:09;;;;;;;7.20;2.28;;;17.80;99.90;;;;;;5053050;28;20173;-86
2022/08/28 07:23:36;;;;;;;5.15;2.10;;;17.80;99.90;;;;;;5054558;28;20175;-87
2022/08/28 07:26:08;;;;;;;8.15;2.15;;;17.90;99.90;;;;;;5053581;28;20207;-87
2022/08/28 07:28:34;;;;;;;3.92;1.70;;;18.00;99.90;;;;;;5053730;28;20171;-87
2022/08/28 07:31:08;;;;;;;11.02;1.63;;;18.00;99.90;;;;;;5054480;28;20171;-84
2022/08/28 07:33:35;;;;;;;10.63;1.80;;;18.10;99.90;;;;;;5054157;28;20665;-83
2022/08/28 07:36:03;;;;;;;5.55;2.25;;;18.30;99.90;;;;;;5054342;28;20152;-83
2022/08/28 07:38:29;;;;;;;15.40;2.20;;;18.20;99.90;;;;;;5052217;28;20711;-81
2022/08/28 07:40:55;;;;;;;15.48;2.42;;;18.30;99.90;;;;;;5051790;28;20211;-82
2022/08/28 07:46:07;;;;;;;5.40;1.40;;;18.60;99.90;;;;;;5053791;28;20657;-80
2022/08/28 07:48:34;;;;;;;11.93;1.75;;;18.70;99.90;;;;;;5054433;28;20175;-84
2022/08/28 07:51:01;;;;;;;7.45;1.88;;;18.70;99.90;;;;;;5055801;28;20173;-82
2022/08/28 07:53:27;;;;;;;13.35;1.88;;;18.70;99.90;;;;;;5053655;28;20215;-81
2022/08/28 07:55:52;;;;;;;15.35;2.28;;;18.70;99.90;;;;;;5053534;28;20623;-81
2022/08/28 07:58:19;;;;;;;12.98;1.98;;;18.80;99.90;;;;;;5053369;28;20207;-81
2022/08/28 08:00:45;;;;;;;11.55;1.70;;;18.80;99.90;;;;;;5052890;28;20156;-81
2022/08/28 08:03:12;;;;;;;8.80;2.55;;;18.80;99.90;;;;;;5051645;28;20277;-81
2022/08/28 08:05:37;;;;;;;7.18;1.98;;;18.90;99.90;;;;;;5053250;28;20168;-80
2022/08/28 08:08:03;;;;;;;2.67;1.60;;;18.90;99.90;;;;;;5052701;28;20647;-82
2022/08/28 08:10:28;;;;;;;17.10;1.70;;;18.90;99.90;;;;;;5051573;28;20159;-81
2022/08/28 08:13:00;;;;;;;8.98;2.30;;;19.10;99.90;;;;;;5053174;28;20660;-82
2022/08/28 08:15:26;;;;;;;7.47;1.55;;;19.30;99.90;;;;;;5052821;28;20242;-81
2022/08/28 08:17:52;;;;;;;4.85;1.65;;;19.50;99.90;;;;;;5052861;28;20318;-80
2022/08/28 08:20:17;;;;;;;6.40;2.10;;;19.60;99.90;;;;;;5051936;28;20175;-85
2022/08/28 08:22:43;;;;;;;8.90;1.70;;;19.50;99.90;;;;;;5053842;28;20191;-86
2022/08/28 08:25:17;;;;;;;13.45;1.92;;;19.50;99.90;;;;;;5054907;28;20193;-86
2022/08/28 08:27:42;;;;;;;12.20;2.00;;;19.40;99.90;;;;;;5051229;28;20248;-85
2022/08/28 08:30:10;;;;;;;4.93;1.70;;;19.40;99.90;;;;;;5056562;28;20167;-86
2022/08/28 08:32:38;;;;;;;3.95;1.55;;;19.60;99.90;;;;;;5052939;28;20201;-82
2022/08/28 08:35:03;;;;;;;6.18;1.60;;;19.90;99.90;;;;;;5052807;28;20202;-85
2022/08/28 08:37:29;;;;;;;7.10;1.85;;;20.10;99.90;;;;;;5051906;28;20270;-83
2022/08/28 08:39:55;;;;;;;7.80;2.10;;;20.10;99.90;;;;;;5052886;28;20163;-83
2022/08/28 08:42:30;;;;;;;3.95;1.60;;;20.10;99.90;;;;;;5051306;28;20187;-84
2022/08/28 08:44:58;;;;;;;14.07;1.92;;;20.20;99.90;;;;;;5051520;28;20308;-84
2022/08/28 08:47:50;;;;;;;6.10;1.45;;;20.20;99.90;;;;;;5053566;28;20228;-84
2022/08/28 08:50:23;;;;;;;3.15;1.60;;;20.20;99.90;;;;;;5051197;28;20163;-83
2022/08/28 08:53:09;;;;;;;11.50;1.48;;;20.20;99.90;;;;;;5050672;28;20226;-82
2022/08/28 08:55:42;;;;;;;6.05;2.08;;;20.30;99.90;;;;;;5050589;28;20201;-82
2022/08/28 08:58:27;;;;;;;4.72;1.30;;;20.50;99.90;;;;;;5050851;28;20234;-83
2022/08/28 09:01:22;;;;;;;10.80;1.92;;;20.60;99.90;;;;;;5050612;28;20266;-83
2022/08/28 09:03:53;;;;;;;10.05;2.10;;;20.80;99.90;;;;;;5052020;28;20168;-82
2022/08/28 09:06:35;;;;;;;6.45;1.85;;;20.90;99.90;;;;;;5050651;28;20195;-83
2022/08/28 09:09:06;;;;;;;5.53;1.88;;;20.90;99.90;;;;;;5051283;28;20210;-83
2022/08/28 09:11:44;;;;;;;9.25;1.75;;;21.10;99.90;;;;;;5052749;28;20187;-85
2022/08/28 09:14:12;;;;;;;6.80;1.50;;;21.20;99.90;;;;;;5056323;28;20258;-83
2022/08/28 09:16:43;;;;;;;6.55;1.70;;;21.20;99.90;;;;;;5054281;28;20167;-85
2022/08/28 09:19:13;;;;;;;6.63;1.77;;;21.40;99.90;;;;;;5054576;28;20640;-84
2022/08/28 09:21:43;;;;;;;6.15;1.63;;;21.60;99.90;;;;;;5055467;28;20270;-85
2022/08/28 09:24:20;;;;;;;7.68;1.50;;;21.30;99.90;;;;;;5054151;28;20168;-85
2022/08/28 09:27:02;;;;;;;10.52;1.70;;;21.20;99.90;;;;;;5054192;28;20262;-84
2022/08/28 09:29:38;;;;;;;11.88;1.80;;;21.20;99.90;;;;;;5054532;28;20178;-87
2022/08/28 09:32:23;;;;;;;8.18;2.33;;;21.20;99.90;;;;;;5054359;28;20191;-87
2022/08/28 09:35:04;;;;;;;9.95;1.52;;;21.10;99.90;;;;;;5056400;28;20167;-83
2022/08/28 09:37:31;;;;;;;12.18;2.15;;;21.20;99.90;;;;;;5055733;28;20215;-87
2022/08/28 09:40:15;;;;;;;16.90;1.63;;;21.20;99.90;;;;;;5056207;28;20195;-87
2022/08/28 09:46:04;;;;;;;4.18;1.40;;;21.20;99.90;;;;;;5057109;28;20167;-88
2022/08/28 09:48:36;;;;;;;5.25;1.40;;;21.30;99.90;;;;;;5055580;28;20190;-85
2022/08/28 09:51:25;;;;;;;10.25;1.48;;;21.30;99.90;;;;;;5055347;28;20656;-86
2022/08/28 09:54:06;;;;;;;13.55;1.90;;;21.40;99.90;;;;;;5061325;28;20627;-86
2022/08/28 09:56:39;;;;;;;12.23;1.85;;;21.50;99.90;;;;;;5056234;28;20170;-89
2022/08/28 09:59:06;;;;;;;5.05;1.58;;;21.50;99.90;;;;;;5055430;28;20205;-89
2022/08/28 10:01:40;;;;;;;8.10;1.55;;;21.50;99.90;;;;;;5057991;28;20547;-89
2022/08/28 10:04:15;;;;;;;9.73;1.83;;;21.50;99.90;;;;;;5055545;28;20173;-90
2022/08/28 10:06:50;;;;;;;5.05;1.63;;;21.60;99.90;;;;;;5056703;28;20848;-87
2022/08/28 10:09:31;;;;;;;6.07;1.67;;;21.60;99.90;;;;;;5055610;28;20197;-88
2022/08/28 10:12:12;;;;;;;9.70;1.50;;;21.80;99.90;;;;;;5055332;28;20199;-91
2022/08/28 10:14:57;;;;;;;3.30;1.50;;;21.80;99.90;;;;;;5055838;28;20572;-87
2022/08/28 10:17:47;;;;;;;4.40;1.27;;;21.80;99.90;;;;;;5055651;28;20289;-90
2022/08/28 10:20:43;;;;;;;6.97;1.38;;;21.70;99.90;;;;;;5055824;28;20167;-90
2022/08/28 10:23:35;;;;;;;8.95;1.52;;;21.70;99.90;;;;;;5054848;28;20238;-90
2022/08/28 10:26:32;;;;;;;7.10;1.00;;;21.70;99.90;;;;;;5054866;28;20262;-90
2022/08/28 10:29:35;;;;;;;11.63;2.00;;;21.70;99.90;;;;;;5055068;28;20183;-88
2022/08/28 10:32:22;;;;;;;5.78;1.90;;;21.70;99.90;;;;;;5054728;28;20198;-90
2022/08/28 10:35:26;;;;;;;12.38;2.28;;;21.80;99.90;;;;;;5054784;28;20167;-86
2022/08/28 10:38:10;;;;;;;6.20;1.35;;;22.20;99.90;;;;;;5055440;28;20710;-87
2022/08/28 10:40:40;;;;;;;4.10;1.83;;;22.40;99.90;;;;;;5053700;28;20174;-87
2022/08/28 10:43:07;;;;;;;15.65;1.60;;;22.30;99.90;;;;;;5056178;28;20262;-91
2022/08/28 10:45:34;;;;;;;13.35;1.77;;;22.30;99.90;;;;;;5056534;28;20199;-90
2022/08/28 10:48:16;;;;;;;5.05;1.40;;;22.20;99.90;;;;;;5061228;28;20254;-87
2022/08/28 10:50:59;;;;;;;10.32;1.60;;;22.10;99.90;;;;;;5074293;28;20171;-88
2022/08/28 10:53:42;;;;;;;6.63;1.20;;;22.20;99.90;;;;;;5073379;28;20199;-88
2022/08/28 10:56:22;;;;;;;2.75;1.60;;;22.30;99.90;;;;;;5061753;28;20189;-83
2022/08/28 10:58:54;;;;;;;4.63;1.50;;;22.20;99.90;;;;;;5058056;28;20210;-85
2022/08/28 11:01:30;;;;;;;8.50;1.05;;;22.20;99.90;;;;;;5054123;28;21192;-87
2022/08/28 11:03:59;;;;;;;5.05;1.38;;;22.30;99.90;;;;;;5053645;28;20195;-86
2022/08/28 11:06:37;;;;;;;6.30;1.52;;;22.30;99.90;;;;;;5054775;28;20178;-90
2022/08/28 11:09:26;;;;;;;4.30;1.15;;;22.40;99.90;;;;;;5110878;22;20749;-84
2022/08/28 11:14:41;;;;;;;4.90;1.15;;;22.30;99.90;;;;;;5008228;23;20247;-82
2022/08/28 11:17:52;;;;;;;;;;;;;;;;;;;;;
2022/08/28 11:20:26;;;;;;;2.55;1.20;;;22.20;99.90;;;;;;5000662;28;20324;-83
2022/08/28 11:28:45;;;;;;;9.18;1.60;;;22.40;99.90;;;;;;5083406;23;20605;-82
2022/08/28 11:31:13;;;;;;;9.30;1.77;;;22.40;99.90;;;;;;4994558;28;20172;-83
2022/08/28 11:33:39;;;;;;;10.23;1.63;;;22.60;99.90;;;;;;4995863;28;20181;-83
2022/08/28 11:38:40;;;;;;;9.57;1.63;;;22.50;99.90;;;;;;5073310;23;20217;-82
2022/08/28 11:41:21;;;;;;;10.77;1.40;;;22.60;99.90;;;;;;4994782;28;20184;-83
2022/08/28 11:44:11;;;;;;;4.68;2.05;;;22.70;99.90;;;;;;4995743;28;20195;-85
2022/08/28 11:46:44;;;;;;;9.00;1.65;;;22.60;99.90;;;;;;4970294;28;20177;-83
2022/08/28 11:49:28;;;;;;;5.20;1.33;;;22.70;99.90;;;;;;4994248;28;20283;-83
2022/08/28 11:52:12;;;;;;;3.78;1.20;;;22.50;99.90;;;;;;4994555;28;20318;-83
2022/08/28 11:54:44;;;;;;;7.50;1.20;;;22.50;99.90;;;;;;4993801;28;20173;-83
2022/08/28 11:57:16;;;;;;;11.82;1.45;;;22.80;99.90;;;;;;4993306;28;20192;-83
2022/08/28 12:00:07;;;;;;;7.22;1.33;;;22.90;99.90;;;;;;4994562;28;20173;-82
2022/08/28 12:02:39;;;;;;;2.08;1.25;;;23.00;99.90;;;;;;4993064;28;20196;-83
2022/08/28 12:05:31;;;;;;;7.72;1.50;;;22.80;99.90;;;;;;4995383;28;20180;-82
2022/08/28 12:08:02;;;;;;;5.90;1.00;;;22.80;99.90;;;;;;4994096;28;20177;-83
2022/08/28 12:10:29;;;;;;;5.75;1.30;;;22.80;99.90;;;;;;4994930;28;20196;-82
2022/08/28 12:13:08;;;;;;;10.07;1.80;;;22.90;99.90;;;;;;4994324;28;20192;-84
2022/08/28 12:15:33;;;;;;;6.00;1.60;;;22.70;99.90;;;;;;5010948;28;20165;-84
2022/08/28 12:18:34;;;;;;;7.43;1.33;;;22.70;99.90;;;;;;5015346;28;20197;-84
2022/08/28 12:21:03;;;;;;;7.15;1.08;;;22.90;99.90;;;;;;5001009;28;20224;-84
2022/08/28 12:23:32;;;;;;;6.72;1.10;;;23.00;99.90;;;;;;4995848;28;20173;-84
2022/08/28 12:26:27;;;;;;;6.55;1.60;;;23.10;99.90;;;;;;5013035;28;20184;-83
2022/08/28 12:29:23;;;;;;;15.52;1.33;;;23.00;99.90;;;;;;5018159;28;20157;-89
2022/08/28 12:34:46;;;;;;;2.35;1.02;;;22.90;99.90;;;;;;5191392;23;20236;-86
2022/08/28 12:37:31;;;;;;;12.90;1.27;;;22.90;99.90;;;;;;4994634;28;20209;-87
2022/08/28 12:40:14;;;;;;;4.88;1.40;;;23.00;99.90;;;;;;4994462;28;20173;-88
2022/08/28 12:43:07;;;;;;;3.85;1.50;;;23.10;99.90;;;;;;4993969;28;20225;-85
2022/08/28 12:45:38;;;;;;;4.95;1.40;;;22.90;99.90;;;;;;4990784;28;20181;-85
2022/08/28 12:48:16;;;;;;;4.55;1.40;;;22.90;99.90;;;;;;4998259;28;20190;-85
2022/08/28 12:50:43;;;;;;;2.58;0.88;;;22.90;99.90;;;;;;4996985;28;20175;-84
2022/08/28 12:53:15;;;;;;;8.75;0.93;;;22.90;99.90;;;;;;4996422;28;20196;-85
2022/08/28 12:55:43;;;;;;;3.20;1.00;;;23.00;99.90;;;;;;4997397;28;20165;-85
2022/08/28 12:58:31;;;;;;;6.40;1.13;;;23.00;99.90;;;;;;4983190;28;20220;-85
2022/08/28 13:01:04;;;;;;;5.88;1.23;;;23.20;99.90;;;;;;4997808;28;20652;-85
2022/08/28 13:03:32;;;;;;;2.63;1.20;;;23.30;99.90;;;;;;4997486;28;20181;-85
2022/08/28 13:06:06;;;;;;;2.75;0.93;;;23.50;99.90;;;;;;4997597;28;20161;-85
2022/08/28 13:08:33;;;;;;;3.55;1.10;;;23.50;99.90;;;;;;4997898;28;20165;-85
2022/08/28 13:11:00;;;;;;;3.03;1.02;;;23.40;99.90;;;;;;4997721;28;20228;-86
2022/08/28 13:13:32;;;;;;;11.10;1.30;;;23.40;99.90;;;;;;4996054;28;20529;-86
2022/08/28 13:16:10;;;;;;;4.65;1.40;;;23.50;99.90;;;;;;4996060;28;20180;-85
2022/08/28 13:18:41;;;;;;;28.15;2.55;;;23.70;99.90;;;;;;4996306;28;20212;-86
2022/08/28 13:21:17;;;;;;;1.85;0.85;;;23.70;99.90;;;;;;4996256;28;20574;-85
2022/08/28 13:23:49;;;;;;;2.90;0.98;;;23.70;99.90;;;;;;4995295;28;20180;-85
2022/08/28 13:26:26;;;;;;;2.38;0.88;;;23.60;99.90;;;;;;4995816;28;20201;-86
2022/08/28 13:28:52;;;;;;;4.63;0.95;;;23.70;99.90;;;;;;4996570;28;20177;-85